Time;durP1;ratioP1;P1;durP2;ratioP2;P2;SDS_P1;SDS_P2;PMS_P1;PMS_P2;Temp;Humidity;BMP_temperature;BMP_pressure;BME280_temperature;BME280_humidity;BME280_pressure;Samples;Min_cycle;Max_cycle;Signal;HPM_P1;HPM_P2
2024/01/29 00:02:03;;;;;;;6.40;1.25;;;;;;;;;;5101291;28;20040;-77
2024/01/29 00:04:34;;;;;;;2.28;1.20;;;;;;;;;;5100682;28;20044;-77
2024/01/29 00:07:04;;;;;;;4.55;1.25;;;;;;;;;;5101100;28;20059;-76
2024/01/29 00:09:34;;;;;;;3.25;1.20;;;;;;;;;;5100665;28;20051;-76
2024/01/29 00:12:05;;;;;;;6.82;1.35;;;;;;;;;;5100764;28;20797;-76
2024/01/29 00:14:36;;;;;;;1.75;1.20;;;;;;;;;;5099569;28;20063;-76
2024/01/29 00:17:07;;;;;;;2.63;0.90;;;;;;;;;;5100955;28;20051;-76
2024/01/29 00:19:37;;;;;;;5.75;1.00;;;;;;;;;;5100213;28;20056;-76
2024/01/29 00:22:08;;;;;;;5.90;1.10;;;;;;;;;;5100827;28;20048;-75
2024/01/29 00:24:40;;;;;;;6.05;1.15;;;;;;;;;;5100956;28;20047;-76
2024/01/29 00:27:12;;;;;;;3.03;1.27;;;;;;;;;;5100974;28;20058;-75
2024/01/29 00:29:42;;;;;;;5.05;1.10;;;;;;;;;;5100028;28;20055;-75
2024/01/29 00:32:12;;;;;;;3.42;0.95;;;;;;;;;;5100301;28;20105;-75
2024/01/29 00:34:43;;;;;;;4.10;1.35;;;;;;;;;;5100570;28;20507;-74
2024/01/29 00:37:15;;;;;;;2.85;1.00;;;;;;;;;;5100086;28;20047;-75
2024/01/29 00:39:45;;;;;;;3.78;1.10;;;;;;;;;;5100767;28;20048;-75
2024/01/29 00:42:16;;;;;;;5.57;1.13;;;;;;;;;;5100547;28;20047;-76
2024/01/29 00:44:49;;;;;;;2.85;1.02;;;;;;;;;;5098765;28;20055;-76
2024/01/29 00:47:20;;;;;;;9.13;1.30;;;;;;;;;;5100358;28;20058;-78
2024/01/29 00:49:51;;;;;;;1.80;1.00;;;;;;;;;;5100584;28;20047;-77
2024/01/29 00:52:22;;;;;;;6.07;1.25;;;;;;;;;;5102975;28;20055;-81
2024/01/29 00:54:52;;;;;;;5.90;1.63;;;;;;;;;;5102673;28;20040;-77
2024/01/29 00:57:24;;;;;;;2.85;0.90;;;;;;;;;;5103131;28;20070;-77
2024/01/29 00:59:55;;;;;;;2.75;1.05;;;;;;;;;;5103230;28;20052;-76
2024/01/29 01:02:25;;;;;;;7.93;1.40;;;;;;;;;;5103414;28;20051;-76
2024/01/29 01:04:55;;;;;;;2.65;1.40;;;;;;;;;;5103179;28;20051;-77
2024/01/29 01:07:27;;;;;;;8.02;1.33;;;;;;;;;;5107433;27;20048;-76
2024/01/29 01:09:58;;;;;;;4.72;1.50;;;;;;;;;;5081926;28;20055;-77
2024/01/29 01:12:29;;;;;;;3.03;1.08;;;;;;;;;;5082231;28;20070;-76
2024/01/29 01:15:00;;;;;;;6.03;1.40;;;;;;;;;;5081242;28;20051;-76
2024/01/29 01:17:31;;;;;;;4.00;1.33;;;;;;;;;;5082012;28;21158;-76
2024/01/29 01:20:03;;;;;;;5.95;1.30;;;;;;;;;;5081440;28;20126;-77
2024/01/29 01:22:34;;;;;;;7.18;1.80;;;;;;;;;;5080381;28;20617;-76
2024/01/29 01:25:06;;;;;;;3.05;1.15;;;;;;;;;;5081140;28;20664;-76
2024/01/29 01:27:37;;;;;;;2.58;1.30;;;;;;;;;;5081460;28;20048;-77
2024/01/29 01:30:09;;;;;;;9.10;1.55;;;;;;;;;;5081789;28;20079;-76
2024/01/29 01:32:39;;;;;;;5.63;1.10;;;;;;;;;;5081583;28;20528;-76
2024/01/29 01:35:11;;;;;;;6.03;1.20;;;;;;;;;;5097023;28;20044;-76
2024/01/29 01:37:42;;;;;;;4.90;1.13;;;;;;;;;;5082527;28;20040;-76
2024/01/29 01:40:13;;;;;;;3.78;0.90;;;;;;;;;;5081804;28;20055;-76
2024/01/29 01:42:44;;;;;;;3.17;0.98;;;;;;;;;;5081916;28;20040;-77
2024/01/29 01:45:14;;;;;;;4.80;1.30;;;;;;;;;;5082601;28;20483;-76
2024/01/29 01:47:45;;;;;;;1.33;0.95;;;;;;;;;;5081910;28;20044;-76
2024/01/29 01:50:17;;;;;;;1.35;0.80;;;;;;;;;;5097206;28;20091;-77
2024/01/29 01:52:48;;;;;;;11.80;1.02;;;;;;;;;;5081949;28;20517;-76
2024/01/29 01:55:19;;;;;;;4.72;0.93;;;;;;;;;;5083185;28;20040;-76
2024/01/29 01:57:50;;;;;;;4.30;1.40;;;;;;;;;;5085686;28;20047;-76
2024/01/29 02:00:22;;;;;;;8.45;1.08;;;;;;;;;;5086607;28;20040;-80
2024/01/29 02:02:52;;;;;;;10.60;1.08;;;;;;;;;;5085668;28;20050;-77
2024/01/29 02:05:22;;;;;;;3.13;0.90;;;;;;;;;;5085925;28;20051;-77
2024/01/29 02:07:53;;;;;;;7.07;1.20;;;;;;;;;;5085615;28;20053;-77
2024/01/29 02:10:25;;;;;;;4.43;1.27;;;;;;;;;;5085716;28;20525;-77
2024/01/29 02:12:57;;;;;;;9.63;1.30;;;;;;;;;;5085510;28;20048;-76
2024/01/29 02:15:28;;;;;;;10.50;1.10;;;;;;;;;;5085348;28;20052;-77
2024/01/29 02:17:58;;;;;;;3.13;1.20;;;;;;;;;;5086255;28;20382;-77
2024/01/29 02:20:31;;;;;;;3.10;1.02;;;;;;;;;;5085506;28;20059;-76
2024/01/29 02:23:03;;;;;;;3.92;1.10;;;;;;;;;;5084310;28;20423;-77
2024/01/29 02:25:34;;;;;;;9.15;1.02;;;;;;;;;;5085192;28;20044;-77
2024/01/29 02:42:02;;;;;;;4.03;1.00;;;;;;;;;;5140790;27;20418;-76
2024/01/29 02:44:34;;;;;;;6.60;0.85;;;;;;;;;;5141563;27;20051;-76
2024/01/29 02:47:05;;;;;;;8.18;1.25;;;;;;;;;;5140784;27;20050;-75
2024/01/29 02:49:35;;;;;;;6.57;1.40;;;;;;;;;;5140530;27;20404;-76
2024/01/29 02:52:06;;;;;;;2.40;1.10;;;;;;;;;;5141063;27;20031;-76
2024/01/29 02:54:38;;;;;;;3.35;1.17;;;;;;;;;;5140506;27;20043;-75
2024/01/29 02:57:08;;;;;;;7.25;1.48;;;;;;;;;;5140391;27;20053;-76
2024/01/29 02:59:38;;;;;;;17.17;2.15;;;;;;;;;;5122307;27;20501;-75
2024/01/29 03:02:09;;;;;;;11.52;1.70;;;;;;;;;;5140527;27;20047;-76
2024/01/29 03:04:41;;;;;;;16.30;1.50;;;;;;;;;;5140579;27;20042;-76
2024/01/29 03:07:12;;;;;;;5.97;1.38;;;;;;;;;;5122932;27;20054;-76
2024/01/29 03:09:42;;;;;;;3.42;1.27;;;;;;;;;;5140486;27;20058;-76
2024/01/29 03:12:14;;;;;;;3.05;1.35;;;;;;;;;;5140010;27;20061;-76
2024/01/29 03:14:45;;;;;;;4.30;1.40;;;;;;;;;;5140203;27;20054;-76
2024/01/29 03:17:15;;;;;;;2.30;1.20;;;;;;;;;;5140286;27;20042;-75
2024/01/29 03:19:45;;;;;;;8.05;1.38;;;;;;;;;;5140424;27;20047;-76
2024/01/29 03:22:16;;;;;;;9.57;1.30;;;;;;;;;;5141152;27;20056;-76
2024/01/29 03:24:47;;;;;;;7.30;1.45;;;;;;;;;;5140414;27;20058;-76
2024/01/29 03:27:17;;;;;;;6.60;1.38;;;;;;;;;;5140310;27;20047;-76
2024/01/29 03:29:48;;;;;;;2.97;1.60;;;;;;;;;;5139379;27;20054;-76
2024/01/29 03:32:18;;;;;;;1.83;1.00;;;;;;;;;;5139896;27;20515;-76
2024/01/29 03:34:49;;;;;;;3.85;1.38;;;;;;;;;;5139870;27;20042;-76
2024/01/29 03:37:19;;;;;;;7.03;1.10;;;;;;;;;;5140037;27;20054;-76
2024/01/29 03:39:49;;;;;;;4.45;1.20;;;;;;;;;;5137860;27;20054;-76
2024/01/29 03:42:21;;;;;;;8.77;1.20;;;;;;;;;;5129556;27;20047;-76
2024/01/29 03:44:51;;;;;;;2.35;0.82;;;;;;;;;;5125791;27;20054;-76
2024/01/29 03:47:22;;;;;;;7.88;1.00;;;;;;;;;;5126008;27;20043;-75
2024/01/29 03:49:53;;;;;;;1.27;0.75;;;;;;;;;;5125516;27;20055;-76
2024/01/29 03:52:24;;;;;;;5.70;1.05;;;;;;;;;;5126477;27;20043;-76
2024/01/29 03:54:54;;;;;;;5.88;1.10;;;;;;;;;;5125607;27;20497;-76
2024/01/29 03:57:28;;;;;;;7.05;1.13;;;;;;;;;;5126309;27;20043;-77
2024/01/29 03:59:58;;;;;;;5.47;0.90;;;;;;;;;;5124892;27;20039;-76
2024/01/29 04:02:38;;;;;;;9.48;1.10;;;;;;;;;;5131170;27;20062;-76
2024/01/29 04:05:09;;;;;;;7.35;1.27;;;;;;;;;;5125585;27;20405;-76
2024/01/29 04:07:41;;;;;;;8.82;1.15;;;;;;;;;;5125575;27;20043;-76
2024/01/29 04:10:12;;;;;;;5.55;1.73;;;;;;;;;;5125343;27;20532;-76
2024/01/29 04:12:42;;;;;;;7.65;1.48;;;;;;;;;;5125008;27;20465;-76
2024/01/29 04:15:14;;;;;;;36.55;2.95;;;;;;;;;;5125291;27;20069;-76
2024/01/29 04:17:46;;;;;;;75.47;2.42;;;;;;;;;;5125573;27;20043;-76
2024/01/29 04:20:16;;;;;;;90.07;3.15;;;;;;;;;;5124902;27;20043;-76
2024/01/29 04:22:47;;;;;;;110.28;5.35;;;;;;;;;;5125247;27;20047;-75
2024/01/29 04:25:18;;;;;;;52.53;2.28;;;;;;;;;;5124887;27;20047;-75
2024/01/29 04:27:51;;;;;;;10.48;1.27;;;;;;;;;;5125271;27;20035;-75
2024/01/29 04:30:21;;;;;;;13.00;3.15;;;;;;;;;;5124963;27;20047;-76
2024/01/29 04:32:51;;;;;;;16.67;1.50;;;;;;;;;;5125445;27;20043;-75
2024/01/29 04:35:22;;;;;;;7.40;1.73;;;;;;;;;;5124834;27;20050;-76
2024/01/29 04:37:53;;;;;;;8.82;1.27;;;;;;;;;;5125131;27;20051;-76
2024/01/29 04:40:23;;;;;;;66.00;2.80;;;;;;;;;;5124572;27;20051;-76
2024/01/29 04:42:53;;;;;;;29.88;1.98;;;;;;;;;;5124790;27;20043;-76
2024/01/29 04:45:24;;;;;;;14.80;1.75;;;;;;;;;;5123998;27;20398;-74
2024/01/29 04:47:55;;;;;;;14.95;1.85;;;;;;;;;;5122609;27;20054;-75
2024/01/29 04:50:26;;;;;;;14.25;1.50;;;;;;;;;;5124014;27;20054;-76
2024/01/29 04:52:57;;;;;;;8.02;1.27;;;;;;;;;;5122103;27;20105;-75
2024/01/29 04:55:27;;;;;;;9.80;1.83;;;;;;;;;;5124160;27;20051;-76
2024/01/29 04:57:57;;;;;;;5.50;1.35;;;;;;;;;;5122930;27;20039;-75
2024/01/29 05:00:29;;;;;;;66.80;5.40;;;;;;;;;;5122853;27;20054;-76
2024/01/29 05:02:59;;;;;;;28.77;2.13;;;;;;;;;;5124550;27;20790;-75
2024/01/29 05:05:29;;;;;;;29.42;1.77;;;;;;;;;;5123506;27;20394;-76
2024/01/29 05:08:01;;;;;;;12.38;1.20;;;;;;;;;;5122803;27;20043;-75
2024/01/29 05:10:33;;;;;;;19.83;1.60;;;;;;;;;;5124052;27;20054;-76
2024/01/29 05:13:06;;;;;;;22.92;1.88;;;;;;;;;;5124036;27;20044;-75
2024/01/29 05:15:36;;;;;;;38.90;2.30;;;;;;;;;;5124085;27;20043;-76
2024/01/29 05:18:07;;;;;;;53.55;2.20;;;;;;;;;;5124379;27;20047;-75
2024/01/29 05:20:38;;;;;;;11.10;2.15;;;;;;;;;;5124457;27;20035;-75
2024/01/29 05:23:09;;;;;;;7.57;1.48;;;;;;;;;;5124006;27;20824;-76
2024/01/29 05:25:39;;;;;;;7.43;1.38;;;;;;;;;;5123499;27;20050;-75
2024/01/29 05:28:09;;;;;;;8.57;1.65;;;;;;;;;;5121734;27;20055;-75
2024/01/29 05:30:41;;;;;;;2.55;1.58;;;;;;;;;;5124656;27;20051;-76
2024/01/29 05:33:11;;;;;;;4.80;1.40;;;;;;;;;;5124149;27;20043;-76
2024/01/29 05:35:56;;;;;;;3.05;1.55;;;;;;;;;;5123027;27;20073;-76
2024/01/29 05:38:27;;;;;;;3.75;1.80;;;;;;;;;;5124097;27;20051;-76
2024/01/29 05:40:58;;;;;;;5.40;2.65;;;;;;;;;;5123582;27;20425;-75
2024/01/29 05:43:29;;;;;;;11.45;2.88;;;;;;;;;;5123624;27;20461;-76
2024/01/29 05:45:59;;;;;;;5.10;2.47;;;;;;;;;;5123306;27;20501;-76
2024/01/29 05:48:31;;;;;;;9.18;2.88;;;;;;;;;;5123580;27;20039;-75
2024/01/29 05:51:02;;;;;;;4.50;2.60;;;;;;;;;;5124202;27;20047;-76
2024/01/29 05:53:33;;;;;;;6.07;2.83;;;;;;;;;;5124439;27;20039;-75
2024/01/29 05:56:06;;;;;;;8.00;3.33;;;;;;;;;;5124085;27;20046;-76
2024/01/29 05:58:37;;;;;;;5.18;2.78;;;;;;;;;;5125553;27;20058;-75
2024/01/29 06:01:07;;;;;;;4.78;2.20;;;;;;;;;;5141533;27;20047;-76
2024/01/29 06:03:38;;;;;;;6.75;3.30;;;;;;;;;;5142982;27;20039;-76
2024/01/29 06:06:08;;;;;;;5.20;2.60;;;;;;;;;;5145127;27;20054;-76
2024/01/29 06:08:39;;;;;;;7.32;2.20;;;;;;;;;;5145562;27;20038;-76
2024/01/29 06:11:11;;;;;;;4.88;2.75;;;;;;;;;;5135170;27;20584;-76
2024/01/29 06:13:42;;;;;;;6.43;2.45;;;;;;;;;;5122578;27;20039;-76
2024/01/29 06:16:12;;;;;;;8.50;2.40;;;;;;;;;;5124010;27;20054;-76
2024/01/29 06:18:43;;;;;;;5.57;2.90;;;;;;;;;;5123090;27;20043;-76
2024/01/29 06:21:13;;;;;;;6.90;2.53;;;;;;;;;;5123385;27;20516;-76
2024/01/29 06:23:44;;;;;;;7.15;3.05;;;;;;;;;;5123521;27;20047;-76
2024/01/29 06:26:14;;;;;;;7.28;3.30;;;;;;;;;;5121253;27;20065;-76
2024/01/29 06:28:46;;;;;;;8.65;3.20;;;;;;;;;;5121418;27;20050;-75
2024/01/29 06:31:17;;;;;;;8.40;2.78;;;;;;;;;;5122762;28;20047;-80
2024/01/29 06:33:48;;;;;;;5.88;2.92;;;;;;;;;;5123324;28;20047;-75
2024/01/29 06:36:18;;;;;;;4.93;2.80;;;;;;;;;;5123380;27;20050;-76
2024/01/29 06:38:49;;;;;;;6.57;2.80;;;;;;;;;;5123515;28;20460;-76
2024/01/29 06:41:24;;;;;;;7.93;2.63;;;;;;;;;;5122368;27;20051;-76
2024/01/29 06:43:55;;;;;;;8.07;3.30;;;;;;;;;;5123318;28;20043;-76
2024/01/29 06:46:27;;;;;;;11.48;3.00;;;;;;;;;;5122343;28;20054;-76
2024/01/29 06:48:58;;;;;;;6.47;3.20;;;;;;;;;;5122433;27;20051;-76
2024/01/29 06:51:29;;;;;;;7.90;3.22;;;;;;;;;;5122377;27;20051;-75
2024/01/29 06:54:03;;;;;;;9.45;3.25;;;;;;;;;;5122675;27;20054;-76
2024/01/29 06:56:34;;;;;;;6.68;2.90;;;;;;;;;;5122867;28;20494;-76
2024/01/29 06:59:04;;;;;;;7.40;3.20;;;;;;;;;;5123238;28;20425;-76
2024/01/29 07:01:39;;;;;;;8.02;2.97;;;;;;;;;;5121495;28;20047;-76
2024/01/29 07:04:10;;;;;;;5.57;2.75;;;;;;;;;;5122340;28;20497;-76
2024/01/29 07:06:40;;;;;;;6.03;2.47;;;;;;;;;;5122612;27;20051;-76
2024/01/29 07:09:11;;;;;;;8.32;2.58;;;;;;;;;;5122671;28;20519;-76
2024/01/29 07:11:41;;;;;;;6.70;2.90;;;;;;;;;;5121086;28;20596;-76
2024/01/29 07:14:11;;;;;;;9.93;2.88;;;;;;;;;;5123247;27;20047;-76
2024/01/29 07:16:42;;;;;;;11.32;3.03;;;;;;;;;;5124386;27;20046;-76
2024/01/29 07:19:13;;;;;;;7.40;2.83;;;;;;;;;;5126810;27;20047;-76
2024/01/29 07:21:43;;;;;;;8.52;3.05;;;;;;;;;;5126084;27;20051;-76
2024/01/29 07:24:14;;;;;;;8.95;3.38;;;;;;;;;;5125878;27;20047;-76
2024/01/29 07:26:44;;;;;;;11.65;3.30;;;;;;;;;;5126267;27;20856;-76
2024/01/29 07:29:15;;;;;;;5.63;2.95;;;;;;;;;;5126072;27;20050;-76
2024/01/29 07:31:47;;;;;;;11.13;3.30;;;;;;;;;;5125985;27;20054;-76
2024/01/29 07:34:17;;;;;;;7.30;3.28;;;;;;;;;;5126655;27;20047;-75
2024/01/29 07:36:48;;;;;;;7.75;3.25;;;;;;;;;;5125746;27;20043;-75
2024/01/29 07:39:20;;;;;;;12.57;3.30;;;;;;;;;;5125908;27;20050;-76
2024/01/29 07:41:50;;;;;;;8.43;4.05;;;;;;;;;;5126400;27;20397;-75
2024/01/29 07:44:21;;;;;;;11.35;4.45;;;;;;;;;;5126000;27;20039;-76
2024/01/29 07:46:51;;;;;;;11.38;2.92;;;;;;;;;;5126489;27;20054;-76
2024/01/29 07:49:21;;;;;;;13.10;3.50;;;;;;;;;;5126676;27;20054;-76
2024/01/29 07:51:53;;;;;;;7.50;3.95;;;;;;;;;;5126659;27;20050;-76
2024/01/29 07:54:25;;;;;;;10.50;3.50;;;;;;;;;;5124866;27;20066;-76
2024/01/29 07:56:55;;;;;;;11.32;4.47;;;;;;;;;;5124026;27;20455;-76
2024/01/29 07:59:25;;;;;;;12.98;3.97;;;;;;;;;;5122860;27;21134;-75
2024/01/29 08:01:56;;;;;;;7.25;4.00;;;;;;;;;;5122675;27;20410;-76
2024/01/29 08:04:28;;;;;;;7.28;3.55;;;;;;;;;;5122424;27;20055;-76
2024/01/29 08:06:59;;;;;;;7.28;3.97;;;;;;;;;;5123115;27;20421;-75
2024/01/29 08:09:29;;;;;;;8.70;3.70;;;;;;;;;;5122486;27;20055;-75
2024/01/29 08:12:00;;;;;;;9.65;3.92;;;;;;;;;;5122979;27;20053;-76
2024/01/29 08:14:30;;;;;;;9.68;4.07;;;;;;;;;;5122273;27;20043;-76
2024/01/29 08:17:01;;;;;;;9.35;3.75;;;;;;;;;;5120867;27;20051;-76
2024/01/29 08:19:32;;;;;;;10.93;3.50;;;;;;;;;;5122212;27;20050;-76
2024/01/29 08:22:03;;;;;;;5.65;3.40;;;;;;;;;;5123100;27;20047;-76
2024/01/29 08:24:34;;;;;;;9.32;3.97;;;;;;;;;;5122130;27;20058;-76
2024/01/29 08:27:05;;;;;;;6.63;3.67;;;;;;;;;;5121759;27;20051;-76
2024/01/29 08:29:35;;;;;;;8.70;4.50;;;;;;;;;;5120046;27;20429;-76
2024/01/29 08:32:06;;;;;;;6.55;3.13;;;;;;;;;;5122830;27;20051;-76
2024/01/29 08:34:38;;;;;;;8.70;4.10;;;;;;;;;;5122881;27;20405;-75
2024/01/29 08:37:08;;;;;;;10.48;4.05;;;;;;;;;;5122366;27;20294;-76
2024/01/29 08:39:38;;;;;;;10.77;3.67;;;;;;;;;;5121496;27;20666;-76
2024/01/29 08:42:09;;;;;;;8.45;3.83;;;;;;;;;;5122661;27;20413;-75
2024/01/29 08:44:40;;;;;;;8.05;3.17;;;;;;;;;;5122100;27;20042;-75
2024/01/29 08:47:11;;;;;;;7.45;4.30;;;;;;;;;;5121879;27;20054;-76
2024/01/29 08:49:41;;;;;;;6.95;3.50;;;;;;;;;;5122031;27;20532;-76
2024/01/29 08:52:12;;;;;;;11.10;3.63;;;;;;;;;;5121703;27;20047;-76
2024/01/29 08:54:44;;;;;;;11.23;4.07;;;;;;;;;;5122183;27;20054;-76
2024/01/29 08:57:14;;;;;;;8.45;4.32;;;;;;;;;;5121666;27;20386;-75
2024/01/29 08:59:44;;;;;;;9.77;3.72;;;;;;;;;;5121388;27;20047;-75
2024/01/29 09:02:16;;;;;;;8.32;3.90;;;;;;;;;;5121717;27;20047;-76
2024/01/29 09:04:47;;;;;;;7.13;3.92;;;;;;;;;;5121602;27;20704;-76
2024/01/29 09:07:19;;;;;;;6.55;4.47;;;;;;;;;;5121904;27;20057;-75
2024/01/29 09:09:49;;;;;;;7.53;3.75;;;;;;;;;;5121404;27;20043;-76
2024/01/29 09:12:20;;;;;;;11.43;3.88;;;;;;;;;;5121230;27;20051;-75
2024/01/29 09:14:51;;;;;;;7.80;4.45;;;;;;;;;;5121350;27;20051;-76
2024/01/29 09:17:22;;;;;;;6.60;3.35;;;;;;;;;;5122432;27;20047;-75
2024/01/29 09:19:52;;;;;;;6.40;3.70;;;;;;;;;;5123433;27;20050;-76
2024/01/29 09:22:23;;;;;;;8.80;3.78;;;;;;;;;;5123733;27;20043;-75
2024/01/29 09:24:53;;;;;;;13.18;4.60;;;;;;;;;;5124373;27;20402;-75
2024/01/29 09:27:24;;;;;;;11.80;4.38;;;;;;;;;;5123393;27;20054;-76
2024/01/29 09:29:54;;;;;;;5.07;3.35;;;;;;;;;;5123822;27;20058;-76
2024/01/29 09:32:26;;;;;;;11.23;3.15;;;;;;;;;;5123584;27;20539;-76
2024/01/29 09:34:58;;;;;;;8.82;4.55;;;;;;;;;;5123866;27;20795;-76
2024/01/29 09:37:28;;;;;;;11.88;4.05;;;;;;;;;;5122429;27;20511;-76
2024/01/29 09:39:58;;;;;;;7.60;3.72;;;;;;;;;;5123085;27;20055;-80
2024/01/29 09:42:33;;;;;;;11.93;5.20;;;;;;;;;;5123523;27;20051;-75
2024/01/29 09:45:08;;;;;;;6.65;3.72;;;;;;;;;;5122278;27;20055;-76
2024/01/29 09:47:41;;;;;;;6.72;4.03;;;;;;;;;;5123843;27;20058;-76
2024/01/29 09:50:12;;;;;;;6.70;3.63;;;;;;;;;;5122933;27;20043;-76
2024/01/29 09:52:45;;;;;;;16.75;4.63;;;;;;;;;;5123387;27;20678;-76
2024/01/29 09:55:17;;;;;;;6.15;3.53;;;;;;;;;;5123189;27;20047;-75
2024/01/29 09:57:47;;;;;;;6.45;3.92;;;;;;;;;;5124033;27;20047;-79
2024/01/29 10:00:18;;;;;;;8.05;3.53;;;;;;;;;;5123356;27;20050;-75
2024/01/29 10:02:53;;;;;;;5.93;3.95;;;;;;;;;;5123011;27;20078;-75
2024/01/29 10:05:31;;;;;;;5.32;3.45;;;;;;;;;;5123293;27;20043;-76
2024/01/29 10:08:02;;;;;;;15.80;5.15;;;;;;;;;;5121561;27;20058;-75
2024/01/29 10:10:34;;;;;;;9.00;4.13;;;;;;;;;;5104754;27;20128;-76
2024/01/29 10:13:09;;;;;;;7.68;3.42;;;;;;;;;;5122938;27;20047;-76
2024/01/29 10:15:43;;;;;;;11.57;3.55;;;;;;;;;;5122923;27;20056;-75
2024/01/29 10:18:15;;;;;;;7.03;3.63;;;;;;;;;;5123042;27;20509;-75
2024/01/29 10:20:46;;;;;;;11.60;3.42;;;;;;;;;;5123109;27;20039;-76
2024/01/29 10:23:16;;;;;;;8.75;3.90;;;;;;;;;;5122573;27;20053;-76
2024/01/29 10:25:59;;;;;;;12.38;4.97;;;;;;;;;;5122332;27;20412;-75
2024/01/29 10:28:30;;;;;;;10.43;4.03;;;;;;;;;;5123023;27;20043;-75
2024/01/29 10:31:00;;;;;;;9.00;4.47;;;;;;;;;;5122996;27;20047;-76
2024/01/29 10:33:31;;;;;;;6.75;4.05;;;;;;;;;;5123160;28;20047;-76
2024/01/29 10:36:03;;;;;;;7.65;4.35;;;;;;;;;;5123138;27;20387;-76
2024/01/29 10:38:40;;;;;;;8.80;4.07;;;;;;;;;;5123217;28;20524;-76
2024/01/29 10:41:12;;;;;;;9.00;4.40;;;;;;;;;;5123183;27;20413;-76
2024/01/29 10:43:48;;;;;;;9.13;4.10;;;;;;;;;;5120868;28;20097;-76
2024/01/29 10:46:20;;;;;;;8.57;3.70;;;;;;;;;;5122333;27;20043;-77
2024/01/29 10:48:54;;;;;;;5.05;3.47;;;;;;;;;;5123046;27;20073;-82
2024/01/29 10:51:26;;;;;;;6.60;3.45;;;;;;;;;;5123304;27;20049;-80
2024/01/29 10:53:59;;;;;;;8.90;3.60;;;;;;;;;;5127120;27;20058;-79
2024/01/29 10:56:32;;;;;;;8.60;3.13;;;;;;;;;;5126655;27;20050;-76
2024/01/29 10:59:03;;;;;;;5.97;3.40;;;;;;;;;;5126826;27;20413;-75
2024/01/29 11:01:34;;;;;;;4.22;3.10;;;;;;;;;;5126766;27;20051;-76
2024/01/29 11:04:11;;;;;;;5.00;3.00;;;;;;;;;;5127563;27;20047;-76
2024/01/29 11:06:50;;;;;;;6.97;3.05;;;;;;;;;;5127209;27;20050;-78
2024/01/29 11:09:24;;;;;;;3.53;2.50;;;;;;;;;;5126532;27;20047;-78
2024/01/29 11:11:56;;;;;;;5.72;3.00;;;;;;;;;;5126646;27;20042;-76
2024/01/29 11:14:28;;;;;;;5.53;3.00;;;;;;;;;;5126973;27;20409;-76
2024/01/29 11:16:59;;;;;;;6.63;2.80;;;;;;;;;;5126374;27;20055;-76
2024/01/29 11:19:33;;;;;;;4.15;3.28;;;;;;;;;;5126310;27;20050;-76
2024/01/29 11:22:04;;;;;;;5.35;2.90;;;;;;;;;;5126117;27;20073;-76
2024/01/29 11:24:35;;;;;;;8.07;3.13;;;;;;;;;;5126357;27;20051;-75
2024/01/29 11:27:10;;;;;;;6.55;3.30;;;;;;;;;;5126157;27;20046;-76
2024/01/29 11:29:45;;;;;;;5.43;3.20;;;;;;;;;;5125921;27;20521;-76
2024/01/29 11:32:16;;;;;;;7.05;3.95;;;;;;;;;;5125189;27;20047;-76
2024/01/29 11:34:48;;;;;;;9.23;3.92;;;;;;;;;;5124285;27;20051;-77
2024/01/29 11:37:29;;;;;;;8.35;4.10;;;;;;;;;;5125122;27;20043;-77
2024/01/29 11:39:59;;;;;;;11.15;4.10;;;;;;;;;;5125192;27;20051;-76
2024/01/29 11:42:30;;;;;;;9.13;6.30;;;;;;;;;;5125164;27;20051;-76
2024/01/29 11:45:01;;;;;;;9.98;5.53;;;;;;;;;;5124896;27;20039;-76
2024/01/29 11:47:32;;;;;;;7.80;4.25;;;;;;;;;;5125408;27;20039;-76
2024/01/29 11:50:04;;;;;;;5.40;3.22;;;;;;;;;;5125978;27;20047;-76
2024/01/29 11:52:34;;;;;;;4.60;2.90;;;;;;;;;;5124661;27;20047;-76
2024/01/29 11:55:06;;;;;;;3.58;2.70;;;;;;;;;;5126338;27;20051;-77
2024/01/29 11:57:43;;;;;;;3.67;1.98;;;;;;;;;;5126196;27;20055;-82
2024/01/29 12:00:24;;;;;;;4.65;1.70;;;;;;;;;;5125391;27;20039;-77
2024/01/29 12:02:56;;;;;;;;;;;;;;;;;;5126000;27;20409;-76
2024/01/29 12:05:26;;;;;;;10.43;3.00;;;;;;;;;;5125299;27;19934;-76
2024/01/29 12:07:56;;;;;;;6.22;3.15;;;;;;;;;;5125265;27;20412;-77
2024/01/29 12:10:28;;;;;;;8.80;2.78;;;;;;;;;;5125528;27;20604;-75
2024/01/29 12:12:59;;;;;;;9.35;2.47;;;;;;;;;;5122979;27;20058;-76
2024/01/29 12:15:30;;;;;;;3.90;2.40;;;;;;;;;;5124266;27;20051;-77
2024/01/29 12:18:07;;;;;;;12.63;3.45;;;;;;;;;;5125686;27;20413;-76
2024/01/29 12:20:40;;;;;;;3.33;2.17;;;;;;;;;;5125445;27;20043;-77
2024/01/29 12:23:13;;;;;;;4.95;2.70;;;;;;;;;;5125534;27;20054;-76
2024/01/29 12:25:50;;;;;;;7.05;2.58;;;;;;;;;;5125069;27;20058;-78
2024/01/29 12:28:21;;;;;;;7.18;2.92;;;;;;;;;;5125352;27;20058;-77
2024/01/29 12:30:58;;;;;;;4.25;2.92;;;;;;;;;;5124424;27;20386;-77
2024/01/29 12:33:29;;;;;;;9.27;3.05;;;;;;;;;;5125764;27;20375;-76
2024/01/29 12:36:16;;;;;;;4.13;2.15;;;;;;;;;;5124675;27;20498;-77
2024/01/29 12:38:55;;;;;;;4.30;2.20;;;;;;;;;;5124622;27;20058;-75
2024/01/29 12:41:37;;;;;;;4.95;2.47;;;;;;;;;;5125154;27;20536;-75
2024/01/29 12:44:12;;;;;;;;;;;;;;;;;;5125385;27;20417;-78
2024/01/29 12:46:43;;;;;;;4.35;2.53;;;;;;;;;;5124855;27;19923;-78
2024/01/29 12:49:14;;;;;;;4.45;2.13;;;;;;;;;;5124861;27;20039;-77
2024/01/29 12:51:48;;;;;;;6.80;2.00;;;;;;;;;;5124403;27;20043;-77
2024/01/29 12:54:21;;;;;;;9.18;1.90;;;;;;;;;;5124058;27;20046;-75
2024/01/29 12:56:52;;;;;;;5.28;2.50;;;;;;;;;;5123106;27;20058;-75
2024/01/29 12:59:25;;;;;;;3.58;1.90;;;;;;;;;;5124995;27;20047;-76
2024/01/29 13:01:57;;;;;;;2.25;1.90;;;;;;;;;;5124974;27;20058;-80
2024/01/29 13:04:29;;;;;;;4.22;1.70;;;;;;;;;;5124650;27;20054;-74
2024/01/29 13:07:00;;;;;;;3.15;1.80;;;;;;;;;;5122703;27;20054;-73
2024/01/29 13:09:31;;;;;;;3.40;1.90;;;;;;;;;;5122807;27;20051;-75
2024/01/29 13:12:02;;;;;;;2.85;1.80;;;;;;;;;;5124324;27;20055;-76
2024/01/29 13:14:33;;;;;;;3.97;2.10;;;;;;;;;;5123495;27;20055;-78
2024/01/29 13:17:03;;;;;;;3.60;1.98;;;;;;;;;;5123897;27;20051;-75
2024/01/29 13:19:33;;;;;;;3.15;2.05;;;;;;;;;;5124143;27;20494;-75
2024/01/29 13:22:06;;;;;;;2.92;1.90;;;;;;;;;;5124591;27;20046;-77
2024/01/29 13:24:37;;;;;;;2.80;1.85;;;;;;;;;;5123568;27;20043;-76
2024/01/29 13:27:07;;;;;;;2.00;1.70;;;;;;;;;;5124003;27;20039;-77
2024/01/29 13:29:37;;;;;;;5.32;1.90;;;;;;;;;;5124125;27;20063;-82
2024/01/29 13:32:08;;;;;;;2.72;1.83;;;;;;;;;;5123758;27;20895;-76
2024/01/29 13:34:40;;;;;;;2.53;1.52;;;;;;;;;;5122688;27;20066;-77
2024/01/29 13:37:10;;;;;;;5.53;1.73;;;;;;;;;;5123715;27;20516;-77
2024/01/29 13:39:40;;;;;;;3.60;1.10;;;;;;;;;;5123774;27;20497;-75
2024/01/29 13:42:11;;;;;;;2.38;1.08;;;;;;;;;;5123384;27;20043;-73
2024/01/29 13:44:42;;;;;;;5.30;2.65;;;;;;;;;;5122121;27;20058;-76
2024/01/29 13:47:13;;;;;;;2.35;1.30;;;;;;;;;;5123351;27;20043;-74
2024/01/29 13:49:43;;;;;;;7.43;2.35;;;;;;;;;;5123714;27;20054;-76
2024/01/29 13:52:15;;;;;;;4.38;1.90;;;;;;;;;;5124095;27;21190;-74
2024/01/29 13:54:46;;;;;;;3.67;1.45;;;;;;;;;;5124035;27;20062;-76
2024/01/29 13:57:16;;;;;;;2.88;1.10;;;;;;;;;;5123730;27;20050;-75
2024/01/29 13:59:47;;;;;;;2.25;1.20;;;;;;;;;;5124204;27;20043;-77
2024/01/29 14:02:18;;;;;;;3.10;1.77;;;;;;;;;;5123071;27;20496;-75
2024/01/29 14:04:49;;;;;;;3.13;1.35;;;;;;;;;;5121724;27;20059;-76
2024/01/29 14:07:21;;;;;;;2.22;1.63;;;;;;;;;;5123482;27;21041;-76
2024/01/29 14:09:52;;;;;;;3.17;1.80;;;;;;;;;;5123433;27;20062;-77
2024/01/29 14:12:23;;;;;;;3.10;1.50;;;;;;;;;;5122931;27;20062;-77
2024/01/29 14:14:55;;;;;;;2.88;1.90;;;;;;;;;;5121453;27;20414;-76
2024/01/29 14:17:26;;;;;;;5.15;1.80;;;;;;;;;;5122935;27;20568;-82
2024/01/29 14:19:56;;;;;;;1.60;1.40;;;;;;;;;;5122833;27;20047;-77
2024/01/29 14:22:30;;;;;;;2.58;1.80;;;;;;;;;;5123579;27;20066;-76
2024/01/29 14:25:01;;;;;;;2.85;2.03;;;;;;;;;;5123567;27;20409;-76
2024/01/29 14:27:31;;;;;;;3.67;2.10;;;;;;;;;;5123869;27;20409;-76
2024/01/29 14:30:02;;;;;;;2.42;1.73;;;;;;;;;;5122272;27;20047;-75
2024/01/29 14:32:33;;;;;;;1.92;1.52;;;;;;;;;;5123446;27;20051;-76
2024/01/29 14:35:06;;;;;;;3.33;1.83;;;;;;;;;;5120880;28;20089;-74
2024/01/29 14:37:37;;;;;;;1.60;1.50;;;;;;;;;;5122429;27;20047;-76
2024/01/29 14:40:09;;;;;;;3.35;1.52;;;;;;;;;;5122556;28;20058;-77
2024/01/29 14:42:40;;;;;;;2.42;1.65;;;;;;;;;;5122644;28;20493;-74
2024/01/29 14:45:11;;;;;;;5.07;1.55;;;;;;;;;;5121720;27;20055;-77
2024/01/29 14:47:41;;;;;;;5.95;2.25;;;;;;;;;;5122651;28;20416;-76
2024/01/29 14:50:12;;;;;;;3.13;1.55;;;;;;;;;;5122871;27;20055;-76
2024/01/29 14:52:42;;;;;;;2.15;1.60;;;;;;;;;;5122853;28;20050;-76
2024/01/29 14:55:13;;;;;;;3.92;1.75;;;;;;;;;;5122608;27;20051;-74
2024/01/29 14:57:44;;;;;;;6.18;1.60;;;;;;;;;;5123136;28;20043;-76
2024/01/29 15:00:14;;;;;;;2.47;1.50;;;;;;;;;;5122656;27;20054;-76
2024/01/29 15:02:45;;;;;;;6.15;1.67;;;;;;;;;;5122749;28;20039;-79
2024/01/29 15:05:15;;;;;;;3.88;1.50;;;;;;;;;;5122897;27;20514;-76
2024/01/29 15:07:46;;;;;;;2.38;1.70;;;;;;;;;;5122987;27;20417;-82
2024/01/29 15:10:17;;;;;;;5.03;1.63;;;;;;;;;;5122680;27;20035;-76
2024/01/29 15:12:48;;;;;;;4.65;2.13;;;;;;;;;;5123053;28;20047;-77
2024/01/29 15:15:18;;;;;;;2.60;1.40;;;;;;;;;;5122331;28;20039;-76
2024/01/29 15:17:50;;;;;;;5.82;2.13;;;;;;;;;;5122944;28;20110;-79
2024/01/29 15:20:22;;;;;;;1.63;1.25;;;;;;;;;;5122272;28;20038;-80